• Join FlightAware (Why Join?)
  • Login
  • US Flag 
06:37AM EDT


 

Airport Tracker/Info


-or-


 

Live Flight TrackerFlight Track Log ✈ UCA4844 ✈ 08/Nov/2013 ✈ KALB - KEWR

Flight Track Log - Related Links

Times and Time Zones

All times are in EST time to prevent confusion due to time zone crossing. See the UCA4844 flight status page for this flight to view local times or setup timezone preferences in your user account.

Time Position Orientation Groundspeed Altitude Reporting Facility
EST Latitude Longitude Course Direction KTS MPH feet Rate Location/Type
03:05PM 42.7483 -73.8197 245° Southwest 114 131 1,200  Level Boston Center
03:06PM 42.7347 -73.8586 245° Southwest 150 173 2,400 1,200 Climbing Boston Center
03:07PM 42.7181 -73.8692 205° Southwest 161 185 2,800 1,200 Climbing Boston Center
03:07PM 42.6922 -73.8908 212° Southwest 180 207 3,700 1,200 Climbing Boston Center
03:08PM 42.6786 -73.9039 215° Southwest 170 196 4,100 1,260 Climbing Boston Center
03:08PM 42.6511 -73.9264 211° Southwest 180 207 5,000 1,560 Climbing Boston Center
03:09PM 42.6356 -73.9389 211° Southwest 179 206 5,700 1,500 Climbing Boston Center
03:10PM 42.5986 -73.9669 209° Southwest 187 215 6,700 1,320 Climbing Boston Center
03:10PM 42.5858 -73.9736 201° Southwest 186 214 7,100 1,260 Climbing Boston Center
03:11PM 42.5506 -73.9942 203° Southwest 195 224 8,000 1,200 Climbing Boston Center
03:11PM 42.5367 -74.0019 202° Southwest 189 217 8,400 1,080 Climbing Boston Center
03:12PM 42.4869 -74.0325 204° Southwest 196 226 9,500 900 Climbing Boston Center
03:13PM 42.4514 -74.0533 203° Southwest 199 229 10,000 480 Climbing Boston Center
03:13PM 42.4317 -74.0667 207° Southwest 204 235 10,000  Level Boston Center
03:14PM 42.3700 -74.1039 204° Southwest 241 277 10,000  Level Boston Center
03:15PM 42.3003 -74.1456 204° Southwest 270 311 10,000  Level Boston Center
03:16PM 42.2325 -74.1850 203° Southwest 266 306 10,000  Level Boston Center
03:17PM 42.1647 -74.2333 208° Southwest 257 296 10,000  Level Boston Center
03:18PM 42.1042 -74.2781 209° Southwest 250 288 10,000  Level Boston Center
03:19PM 42.0417 -74.3233 208° Southwest 254 292 10,000  Level Boston Center
03:20PM 41.9783 -74.3686 208° Southwest 257 296 10,000  Level Boston Center
03:21PM 41.9125 -74.4169 209° Southwest 251 289 10,000  Level Boston Center
03:22PM 41.8506 -74.4597 207° Southwest 252 290 10,000  Level Boston Center
03:23PM 41.7869 -74.5056 208° Southwest 260 299 10,000  Level Boston Center
03:24PM 41.7103 -74.5347 196° South 275 316 10,000 -360 Level Boston Center
03:25PM 41.6344 -74.5483 188° South 276 318 9,300 -1,320 Descending Boston Center
03:26PM 41.5625 -74.5617 188° South 264 304 7,300 -1,620 Descending Boston Center
03:27PM 41.4911 -74.5747 188° South 245 282 6,000 -660 Descending Boston Center
03:28PM 41.4233 -74.5878 188° South 246 283 6,000  Level Boston Center
03:29PM 41.3556 -74.6108 194° South 250 288 6,000  Level Boston Center
03:30PM 41.2850 -74.6214 186° South 255 293 6,000  Level Boston Center
03:31PM 41.2167 -74.6000 167° South 258 297 6,000  Level New York TRACON
03:32PM 41.1500 -74.5667 159° South 269 310 6,000  Level New York TRACON
03:33PM 41.0833 -74.5333 159° South 266 306 6,000  Level New York TRACON
03:34PM 41.0167 -74.5167 169° South 261 300 6,000  Level New York TRACON
03:35PM 40.9333 -74.5000 171° South 262 302 6,000  Level New York TRACON
03:36PM 40.8667 -74.4833 169° South 257 296 6,000  Level New York TRACON
03:37PM 40.8000 -74.4833 180° South 258 297 6,000 -300 Level New York TRACON
03:38PM 40.7167 -74.5000 189° South 253 291 5,400 -540 Descending New York TRACON
03:39PM 40.6667 -74.4667 153° Southeast 248 285 5,000 -780 Descending New York TRACON
03:40PM 40.6000 -74.4000 143° Southeast 247 284 3,900 -1,020 Descending New York TRACON
03:41PM 40.5500 -74.3500 143° Southeast 251 289 3,000 -660 Descending New York TRACON
03:42PM 40.5333 -74.2833 108° East 211 243 2,600 -300 Descending New York TRACON
03:43PM 40.5667 -74.2333 49° Northeast 186 214 2,400 -660 Descending New York TRACON
03:44PM 40.6167 -74.2167 14° North 178 205 1,300 -960 Descending New York TRACON
03:45PM 40.6667 -74.1833 27° Northeast 136 157 500 -840 Descending New York TRACON